createdAt,value
2023-05-14T00:01:53.006Z,11.49
2023-05-14T00:06:48.980Z,11.53
2023-05-14T00:11:19.238Z,11.51
2023-05-14T00:15:48.632Z,11.55
2023-05-14T00:39:18.393Z,11.68
2023-05-14T00:43:44.407Z,11.69
2023-05-14T00:47:50.864Z,11.64
2023-05-14T00:52:09.281Z,11.60
2023-05-14T00:56:16.490Z,11.69
2023-05-14T01:00:21.088Z,11.71
2023-05-14T01:04:44.692Z,11.72
2023-05-14T01:08:59.667Z,11.66
2023-05-14T01:13:06.257Z,11.47
2023-05-14T01:17:09.143Z,11.39
2023-05-14T01:21:41.430Z,11.27
2023-05-14T01:25:48.116Z,11.21
2023-05-14T01:30:32.177Z,11.22
2023-05-14T01:34:57.554Z,11.21
2023-05-14T01:39:17.554Z,11.14
2023-05-14T01:43:20.710Z,11.11
2023-05-14T01:47:45.826Z,10.93
2023-05-14T01:56:57.636Z,10.88
2023-05-14T02:01:09.500Z,10.76
2023-05-14T02:05:20.424Z,10.86
2023-05-14T02:14:11.270Z,10.93
2023-05-14T02:18:27.400Z,10.96
2023-05-14T02:22:41.535Z,10.93
2023-05-14T02:26:46.270Z,11.01
2023-05-14T02:31:15.013Z,11.05
2023-05-14T02:35:20.133Z,11.07
2023-05-14T02:39:41.110Z,11.19
2023-05-14T02:44:06.661Z,11.31
2023-05-14T02:48:21.262Z,11.40
2023-05-14T02:52:44.198Z,11.30
2023-05-14T02:56:52.057Z,11.33
2023-05-14T03:00:53.709Z,11.36
2023-05-14T03:05:18.992Z,11.28
2023-05-14T03:14:20.698Z,11.39
2023-05-14T03:18:41.403Z,11.77
2023-05-14T03:22:49.007Z,12.14
2023-05-14T03:26:51.645Z,12.10
2023-05-14T03:31:14.305Z,11.89
2023-05-14T03:35:22.104Z,11.94
2023-05-14T03:39:37.249Z,11.90
2023-05-14T03:43:45.097Z,11.91
2023-05-14T03:47:52.010Z,12.03
2023-05-14T03:52:04.575Z,12.54
2023-05-14T03:56:15.038Z,12.82
2023-05-14T04:00:19.177Z,13.51
2023-05-14T04:04:23.925Z,14.00
2023-05-14T04:08:25.877Z,14.27
2023-05-14T04:16:54.293Z,13.50
2023-05-14T04:20:55.179Z,13.44
2023-05-14T04:24:59.180Z,13.33
2023-05-14T04:29:06.764Z,13.70
2023-05-14T04:33:13.192Z,13.67
2023-05-14T04:37:18.284Z,13.92
2023-05-14T04:41:18.311Z,13.73
2023-05-14T04:45:22.335Z,13.99
2023-05-14T04:49:25.323Z,13.79
2023-05-14T04:53:26.786Z,13.95
2023-05-14T04:57:32.343Z,13.74
2023-05-14T05:01:34.795Z,13.76
2023-05-14T05:05:38.240Z,13.95
2023-05-14T05:09:38.595Z,14.14
2023-05-14T05:13:38.962Z,14.55
2023-05-14T05:17:40.835Z,14.84
2023-05-14T05:21:41.943Z,15.23
2023-05-14T05:25:42.700Z,15.36
2023-05-14T05:29:43.023Z,15.49
2023-05-14T05:33:47.554Z,15.93
2023-05-14T05:37:51.520Z,15.96
2023-05-14T05:41:54.819Z,16.48
2023-05-14T05:45:55.416Z,16.56
2023-05-14T05:50:02.232Z,16.42
2023-05-14T05:54:04.075Z,16.60
2023-05-14T05:58:05.112Z,16.82
2023-05-14T06:02:05.747Z,16.93
2023-05-14T06:06:08.812Z,17.20
2023-05-14T06:10:09.592Z,17.97
2023-05-14T06:46:02.092Z,19.48
2023-05-14T06:50:11.866Z,19.97
2023-05-14T06:54:18.225Z,20.19
2023-05-14T06:58:20.717Z,19.74
2023-05-14T07:02:23.628Z,19.80
2023-05-14T07:06:25.278Z,20.23
2023-05-14T07:10:26.548Z,20.21
2023-05-14T07:14:27.108Z,20.60
2023-05-14T07:18:33.948Z,20.49
2023-05-14T07:22:41.200Z,19.93
2023-05-14T07:26:41.330Z,19.93
2023-05-14T07:30:52.348Z,19.92
2023-05-14T07:34:54.974Z,19.63
2023-05-14T07:38:55.477Z,19.76
2023-05-14T07:42:56.121Z,20.00
2023-05-14T07:46:56.896Z,19.99
2023-05-14T07:51:06.535Z,20.07
2023-05-14T07:55:07.692Z,20.11
2023-05-14T07:59:11.345Z,20.22
2023-05-14T08:03:16.793Z,20.59
2023-05-14T08:07:28.751Z,20.41
2023-05-14T08:11:39.849Z,20.59
2023-05-14T08:15:42.951Z,20.93
2023-05-14T08:19:49.430Z,20.96
2023-05-14T08:23:53.253Z,20.68
2023-05-14T08:27:58.351Z,20.63
2023-05-14T08:32:05.775Z,20.40
2023-05-14T08:36:15.451Z,20.57
2023-05-14T08:40:18.391Z,21.14
2023-05-14T08:44:23.852Z,21.01
2023-05-14T08:48:31.608Z,21.34
2023-05-14T08:52:43.003Z,21.53
2023-05-14T08:56:51.704Z,21.24
2023-05-14T09:01:03.159Z,21.58
2023-05-14T09:05:13.397Z,21.79
2023-05-14T09:09:18.506Z,21.63
2023-05-14T09:13:47.283Z,21.29
2023-05-14T09:21:49.852Z,21.06
2023-05-14T11:34:10.318Z,21.09
2023-05-14T11:38:16.393Z,21.58
2023-05-14T11:42:18.601Z,21.81
2023-05-14T11:46:22.819Z,21.67
2023-05-14T11:50:30.393Z,21.91
2023-05-14T11:54:52.743Z,21.49
2023-05-14T11:59:03.628Z,21.95
2023-05-14T12:03:04.830Z,21.97
2023-05-14T12:07:13.120Z,22.28
2023-05-14T12:11:15.399Z,22.46
2023-05-14T12:15:18.556Z,22.57
2023-05-14T12:19:25.834Z,22.26
2023-05-14T12:23:32.436Z,22.57
2023-05-14T12:27:37.090Z,22.83
2023-05-14T12:31:38.516Z,22.79
2023-05-14T12:35:39.890Z,22.65
2023-05-14T12:39:41.627Z,22.33
2023-05-14T12:43:54.791Z,22.09
2023-05-14T12:47:55.088Z,22.12
2023-05-14T12:56:19.795Z,22.62
2023-05-14T13:00:22.365Z,22.72
2023-05-14T13:04:26.047Z,22.83
2023-05-14T13:08:29.068Z,22.52
2023-05-14T13:12:44.645Z,22.53
2023-05-14T13:17:16.931Z,22.60
2023-05-14T13:21:49.301Z,22.24
2023-05-14T13:25:58.157Z,22.31
2023-05-14T13:30:26.978Z,22.16
2023-05-14T13:34:36.284Z,22.71
2023-05-14T13:38:51.069Z,22.87
2023-05-14T13:43:13.246Z,23.20
2023-05-14T13:47:37.493Z,22.88
2023-05-14T13:52:11.091Z,23.18
2023-05-14T13:56:54.066Z,22.89
2023-05-14T14:07:12.490Z,22.52
2023-05-14T14:16:45.372Z,22.15
2023-05-14T14:21:19.318Z,22.13
2023-05-14T14:25:23.325Z,22.06
2023-05-14T14:29:27.276Z,22.21
2023-05-14T14:33:31.099Z,22.17
2023-05-14T14:37:32.535Z,22.25
2023-05-14T14:41:35.955Z,22.33
2023-05-14T14:45:36.441Z,22.07
2023-05-14T14:49:38.171Z,22.07
2023-05-14T14:53:41.578Z,22.36
2023-05-14T14:57:45.579Z,22.49
2023-05-14T15:01:51.154Z,22.19
2023-05-14T15:05:56.204Z,22.28
2023-05-14T15:10:05.623Z,22.09
2023-05-14T15:14:13.976Z,21.95
2023-05-14T15:18:18.721Z,21.74
2023-05-14T15:22:27.762Z,21.67
2023-05-14T15:26:33.593Z,21.47
2023-05-14T15:30:46.542Z,21.42
2023-05-14T15:35:05.722Z,21.52
2023-05-14T15:39:13.222Z,21.57
2023-05-14T15:48:10.336Z,21.52
2023-05-14T15:57:04.760Z,21.40
2023-05-14T16:01:21.505Z,21.32
2023-05-14T16:05:37.008Z,21.30
2023-05-14T16:09:41.172Z,21.01
2023-05-14T16:13:41.814Z,21.04
2023-05-14T16:17:42.724Z,20.95
2023-05-14T16:21:46.885Z,20.80
2023-05-14T16:25:48.654Z,20.87
2023-05-14T16:29:48.461Z,20.82
2023-05-14T16:34:12.005Z,20.76
2023-05-14T16:38:20.712Z,20.78
2023-05-14T16:42:22.794Z,20.75
2023-05-14T16:46:23.038Z,20.79
2023-05-14T16:50:23.409Z,20.92
2023-05-14T16:54:26.297Z,20.52
2023-05-14T16:58:26.369Z,20.54
2023-05-14T17:02:27.399Z,20.58
2023-05-14T17:06:27.814Z,20.53
2023-05-14T17:10:30.804Z,20.47
2023-05-14T17:14:31.558Z,20.42
2023-05-14T17:18:32.417Z,20.31
2023-05-14T17:22:32.700Z,20.38
2023-05-14T17:26:35.016Z,20.28
2023-05-14T17:30:34.478Z,20.19
2023-05-14T17:34:34.800Z,20.00
2023-05-14T17:38:39.793Z,19.87
2023-05-14T17:42:45.617Z,19.78
2023-05-14T17:46:47.790Z,19.68
2023-05-14T17:50:50.867Z,19.64
2023-05-14T17:54:50.657Z,19.43
2023-05-14T17:58:53.179Z,19.30
2023-05-14T18:02:54.648Z,19.19
2023-05-14T18:06:54.756Z,18.96
2023-05-14T18:10:54.598Z,18.86
2023-05-14T18:14:56.862Z,18.86
2023-05-14T18:18:58.046Z,18.89
2023-05-14T18:22:58.437Z,18.87
2023-05-14T18:26:58.134Z,18.70
2023-05-14T18:31:04.913Z,18.67
2023-05-14T18:35:07.746Z,18.63
2023-05-14T18:39:08.191Z,18.53
2023-05-14T18:43:08.029Z,18.53
2023-05-14T18:47:09.849Z,18.45
2023-05-14T18:51:11.197Z,18.52
2023-05-14T18:55:11.485Z,18.47
2023-05-14T18:59:12.706Z,18.61
2023-05-14T19:03:18.066Z,18.71
2023-05-14T19:07:18.662Z,18.82
2023-05-14T19:11:21.760Z,18.82
2023-05-14T19:15:23.070Z,18.57
2023-05-14T19:19:26.196Z,18.44
2023-05-14T19:23:26.613Z,18.39
2023-05-14T19:27:27.117Z,18.37
2023-05-14T19:31:29.162Z,18.12
2023-05-14T19:35:31.629Z,17.86
2023-05-14T19:39:31.322Z,17.67
2023-05-14T19:43:31.156Z,17.56
2023-05-14T19:47:31.876Z,17.20
2023-05-14T19:51:34.403Z,17.17
2023-05-14T19:55:35.045Z,17.14
2023-05-14T19:59:34.855Z,17.01
2023-05-14T20:03:36.603Z,16.98
2023-05-14T20:07:40.542Z,16.85
2023-05-14T20:11:41.047Z,16.84
2023-05-14T20:15:41.481Z,16.69
2023-05-14T20:19:42.071Z,16.74
2023-05-14T20:23:45.844Z,16.77
2023-05-14T20:27:49.233Z,16.83
2023-05-14T20:31:49.817Z,16.83
2023-05-14T20:35:53.023Z,16.82
2023-05-14T20:40:05.037Z,16.86
2023-05-14T20:44:09.071Z,17.24
2023-05-14T20:48:11.420Z,17.46
2023-05-14T20:52:11.890Z,17.56
2023-05-14T20:56:15.072Z,17.72
2023-05-14T21:00:15.714Z,17.56
2023-05-14T21:04:16.427Z,17.58
2023-05-14T21:08:19.468Z,17.44
2023-05-14T21:12:22.074Z,17.29
2023-05-14T21:16:22.933Z,16.90
2023-05-14T21:20:24.631Z,16.50
2023-05-14T21:24:28.229Z,16.11
2023-05-14T21:32:52.472Z,15.93
2023-05-14T21:36:52.921Z,15.94
2023-05-14T21:40:53.273Z,15.82
2023-05-14T21:44:55.551Z,15.67
2023-05-14T21:48:56.064Z,15.45
2023-05-14T21:52:56.618Z,15.46
2023-05-14T21:56:57.244Z,15.36
2023-05-14T22:01:03.548Z,15.35
2023-05-14T22:05:06.636Z,15.36
2023-05-14T22:09:09.232Z,15.43
2023-05-14T22:13:16.018Z,15.41
2023-05-14T22:17:24.615Z,15.11
2023-05-14T22:21:27.544Z,14.84
2023-05-14T22:25:28.592Z,14.62
2023-05-14T22:29:29.011Z,14.46
2023-05-14T22:33:39.378Z,14.45
2023-05-14T22:37:41.165Z,14.35
2023-05-14T22:41:42.813Z,14.30
2023-05-14T22:45:45.804Z,14.24
2023-05-14T22:49:49.337Z,14.16
2023-05-14T22:53:49.964Z,14.05
2023-05-14T22:57:54.007Z,14.10
2023-05-14T23:01:54.645Z,14.14
2023-05-14T23:05:57.842Z,14.17
2023-05-14T23:10:02.466Z,14.08
2023-05-14T23:14:03.320Z,13.98
2023-05-14T23:18:03.422Z,13.97
2023-05-14T23:22:06.350Z,13.98
2023-05-14T23:26:09.946Z,13.93
2023-05-14T23:30:11.199Z,13.91
2023-05-14T23:34:11.936Z,14.09
2023-05-14T23:38:14.944Z,14.10
2023-05-14T23:42:15.457Z,14.10
2023-05-14T23:46:15.868Z,14.10
2023-05-14T23:50:16.358Z,14.25
2023-05-14T23:54:18.857Z,14.31
2023-05-14T23:58:19.006Z,14.40
